createdAt,value
2023-02-09T00:01:48.580Z,19.63
2023-02-09T00:04:17.186Z,22.27
2023-02-09T00:06:46.683Z,22.13
2023-02-09T00:09:15.111Z,24.50
2023-02-09T00:12:00.870Z,19.27
2023-02-09T00:14:29.196Z,17.77
2023-02-09T00:16:57.346Z,20.40
2023-02-09T00:19:25.522Z,19.47
2023-02-09T00:21:55.554Z,18.10
2023-02-09T00:24:23.748Z,19.00
2023-02-09T00:26:52.662Z,21.87
2023-02-09T00:29:22.491Z,18.20
2023-02-09T00:31:52.554Z,23.07
2023-02-09T00:34:20.740Z,18.50
2023-02-09T00:36:49.799Z,19.23
2023-02-09T00:39:19.348Z,20.87
2023-02-09T00:42:05.108Z,19.70
2023-02-09T00:44:33.657Z,20.20
2023-02-09T00:47:02.553Z,19.03
2023-02-09T00:49:31.488Z,18.60
2023-02-09T00:52:01.890Z,18.97
2023-02-09T00:54:31.481Z,20.40
2023-02-09T00:57:05.581Z,19.77
2023-02-09T00:59:36.825Z,24.13
2023-02-09T01:02:05.072Z,19.70
2023-02-09T01:04:34.223Z,23.90
2023-02-09T01:07:02.451Z,24.23
2023-02-09T01:09:32.056Z,18.80
2023-02-09T01:12:00.269Z,17.60
2023-02-09T01:14:28.801Z,21.30
2023-02-09T01:16:58.927Z,16.07
2023-02-09T01:19:27.768Z,17.13
2023-02-09T01:21:56.792Z,19.40
2023-02-09T01:24:25.104Z,18.97
2023-02-09T01:26:54.764Z,21.00
2023-02-09T01:29:23.091Z,18.40
2023-02-09T01:31:51.340Z,16.77
2023-02-09T01:34:19.910Z,19.73
2023-02-09T01:36:50.137Z,14.20
2023-02-09T01:39:18.314Z,19.57
2023-02-09T01:41:46.483Z,16.43
2023-02-09T01:44:51.019Z,21.10
2023-02-09T01:47:21.278Z,16.10
2023-02-09T01:49:51.882Z,18.90
2023-02-09T01:52:24.471Z,18.60
2023-02-09T01:54:56.971Z,24.20
2023-02-09T01:57:28.948Z,20.03
2023-02-09T02:00:01.969Z,14.40
2023-02-09T02:02:32.375Z,18.90
2023-02-09T02:05:00.948Z,19.20
2023-02-09T02:07:34.679Z,17.63
2023-02-09T02:10:03.830Z,23.10
2023-02-09T02:12:33.901Z,18.37
2023-02-09T02:15:02.100Z,18.23
2023-02-09T02:17:47.242Z,20.17
2023-02-09T02:20:39.984Z,13.60
2023-02-09T02:23:18.624Z,19.37
2023-02-09T02:26:09.936Z,20.80
2023-02-09T02:28:58.994Z,23.23
2023-02-09T02:31:45.752Z,19.97
2023-02-09T02:34:21.112Z,19.53
2023-02-09T02:37:01.078Z,21.93
2023-02-09T02:39:37.996Z,22.10
2023-02-09T02:42:31.991Z,19.43
2023-02-09T02:45:06.240Z,19.40
2023-02-09T02:47:40.062Z,20.30
2023-02-09T02:50:14.406Z,19.93
2023-02-09T02:52:47.382Z,21.10
2023-02-09T02:55:19.239Z,18.13
2023-02-09T02:57:52.726Z,20.07
2023-02-09T03:00:27.130Z,20.93
2023-02-09T03:03:00.981Z,16.87
2023-02-09T03:05:29.534Z,20.97
2023-02-09T03:07:57.765Z,21.97
2023-02-09T03:10:30.654Z,25.07
2023-02-09T03:13:19.035Z,18.07
2023-02-09T03:15:58.412Z,15.80
2023-02-09T03:18:33.386Z,19.67
2023-02-09T03:21:07.431Z,18.87
2023-02-09T03:23:43.377Z,18.53
2023-02-09T03:26:16.901Z,17.40
2023-02-09T03:28:47.528Z,17.47
2023-02-09T03:31:16.645Z,20.43
2023-02-09T03:33:46.828Z,14.10
2023-02-09T03:36:17.794Z,22.53
2023-02-09T03:38:46.352Z,19.53
2023-02-09T03:41:14.581Z,17.93
2023-02-09T03:44:00.332Z,19.37
2023-02-09T03:46:28.638Z,17.83
2023-02-09T03:48:58.310Z,19.43
2023-02-09T03:51:26.866Z,16.73
2023-02-09T03:53:55.362Z,21.10
2023-02-09T03:56:24.885Z,15.37
2023-02-09T03:58:53.725Z,25.50
2023-02-09T04:01:22.019Z,15.37
2023-02-09T04:03:50.231Z,16.53
2023-02-09T04:06:20.039Z,16.83
2023-02-09T04:08:48.210Z,20.13
2023-02-09T04:11:16.368Z,20.50
2023-02-09T04:13:44.730Z,20.93
2023-02-09T04:16:13.453Z,18.87
2023-02-09T04:18:41.862Z,18.30
2023-02-09T04:21:10.039Z,18.33
2023-02-09T04:23:40.165Z,15.27
2023-02-09T04:26:09.912Z,17.00
2023-02-09T04:28:38.114Z,19.87
2023-02-09T04:31:06.705Z,14.90
2023-02-09T04:33:34.979Z,16.17
2023-02-09T04:36:04.580Z,16.50
2023-02-09T04:38:33.209Z,17.30
2023-02-09T04:41:04.287Z,16.40
2023-02-09T04:43:34.388Z,13.53
2023-02-09T04:46:03.204Z,16.07
2023-02-09T04:48:31.664Z,16.20
2023-02-09T04:50:59.839Z,16.30
2023-02-09T04:53:29.554Z,15.37
2023-02-09T04:55:57.767Z,15.60
2023-02-09T04:58:44.734Z,16.33
2023-02-09T05:01:16.203Z,18.70
2023-02-09T05:03:44.455Z,17.37
2023-02-09T05:06:12.872Z,17.97
2023-02-09T05:08:41.152Z,18.37
2023-02-09T05:11:09.346Z,15.83
2023-02-09T05:13:39.310Z,20.47
2023-02-09T05:16:07.975Z,18.70
2023-02-09T05:18:37.487Z,19.57
2023-02-09T05:21:06.985Z,14.17
2023-02-09T05:23:35.156Z,15.30
2023-02-09T05:26:03.428Z,17.03
2023-02-09T05:28:31.717Z,19.03
2023-02-09T05:31:01.306Z,15.37
2023-02-09T05:33:29.515Z,13.80
2023-02-09T05:35:57.654Z,13.20
2023-02-09T05:38:25.825Z,12.40
2023-02-09T05:40:53.963Z,16.43
2023-02-09T05:43:22.097Z,12.93
2023-02-09T05:45:50.321Z,16.00
2023-02-09T05:48:19.805Z,20.97
2023-02-09T05:50:48.941Z,12.27
2023-02-09T05:53:17.279Z,20.53
2023-02-09T05:55:47.244Z,19.67
2023-02-09T05:58:15.475Z,18.40
2023-02-09T06:00:44.401Z,20.00
2023-02-09T06:03:13.265Z,14.70
2023-02-09T06:05:45.835Z,16.20
2023-02-09T06:08:14.984Z,17.67
2023-02-09T06:10:43.306Z,17.13
2023-02-09T06:13:11.639Z,13.00
2023-02-09T06:15:40.746Z,19.20
2023-02-09T06:18:09.161Z,21.90
2023-02-09T06:20:37.339Z,21.10
2023-02-09T06:23:06.829Z,21.40
2023-02-09T06:25:35.123Z,19.07
2023-02-09T06:28:03.391Z,21.00
2023-02-09T06:30:32.893Z,21.07
2023-02-09T06:33:01.172Z,18.27
2023-02-09T06:35:29.645Z,23.50
2023-02-09T06:37:58.294Z,22.40
2023-02-09T06:40:27.997Z,21.90
2023-02-09T06:42:56.158Z,18.27
2023-02-09T06:45:24.469Z,18.77
2023-02-09T06:47:52.645Z,18.77
2023-02-09T06:50:21.477Z,16.27
2023-02-09T06:52:50.103Z,12.77
2023-02-09T06:55:18.429Z,12.30
2023-02-09T06:57:48.026Z,14.77
2023-02-09T07:00:17.357Z,13.07
2023-02-09T07:02:46.327Z,13.83
2023-02-09T07:05:16.173Z,15.90
2023-02-09T07:07:45.415Z,19.00
2023-02-09T07:10:16.233Z,19.30
2023-02-09T07:12:44.605Z,16.30
2023-02-09T07:15:15.522Z,14.47
2023-02-09T07:17:43.713Z,15.07
2023-02-09T07:20:13.123Z,12.73
2023-02-09T07:22:41.374Z,13.37
2023-02-09T07:25:09.557Z,14.67
2023-02-09T07:27:37.730Z,18.17
2023-02-09T07:30:06.392Z,17.47
2023-02-09T07:32:38.102Z,19.07
2023-02-09T07:35:07.029Z,16.13
2023-02-09T07:37:35.855Z,15.57
2023-02-09T07:40:04.546Z,12.23
2023-02-09T07:42:32.678Z,18.00
2023-02-09T07:45:03.699Z,16.77
2023-02-09T07:47:31.778Z,12.37
2023-02-09T07:50:01.254Z,13.73
2023-02-09T07:52:29.412Z,13.70
2023-02-09T07:54:57.550Z,16.43
2023-02-09T07:57:27.528Z,10.83
2023-02-09T07:59:55.674Z,12.93
2023-02-09T08:02:29.249Z,12.70
2023-02-09T08:04:59.973Z,16.10
2023-02-09T08:07:29.953Z,16.53
2023-02-09T08:09:58.622Z,15.97
2023-02-09T08:12:43.199Z,16.63
2023-02-09T08:15:12.131Z,17.83
2023-02-09T08:17:40.724Z,15.00
2023-02-09T08:20:12.602Z,18.33
2023-02-09T08:22:46.507Z,14.23
2023-02-09T08:25:17.190Z,12.43
2023-02-09T08:27:46.632Z,13.07
2023-02-09T08:30:17.552Z,9.73
2023-02-09T08:32:45.897Z,13.80
2023-02-09T08:35:14.695Z,11.90
2023-02-09T08:37:44.168Z,15.77
2023-02-09T08:40:14.866Z,13.70
2023-02-09T08:42:43.105Z,11.50
2023-02-09T08:45:11.473Z,11.63
2023-02-09T08:47:39.869Z,13.33
2023-02-09T08:50:08.521Z,9.70
2023-02-09T08:52:36.821Z,12.90
2023-02-09T08:55:06.845Z,10.63
2023-02-09T08:57:43.931Z,11.77
2023-02-09T09:00:14.318Z,13.40
2023-02-09T09:02:42.627Z,12.90
2023-02-09T09:05:11.015Z,13.63
2023-02-09T09:07:39.434Z,14.43
2023-02-09T09:10:10.192Z,12.77
2023-02-09T09:12:38.790Z,10.30
2023-02-09T09:15:07.393Z,11.33
2023-02-09T09:17:35.568Z,14.67
2023-02-09T09:20:03.848Z,10.83
2023-02-09T09:22:32.044Z,13.73
2023-02-09T09:25:00.256Z,11.23
2023-02-09T09:27:32.628Z,10.77
2023-02-09T09:30:00.846Z,11.13
2023-02-09T09:32:29.436Z,13.00
2023-02-09T09:34:59.730Z,12.13
2023-02-09T09:37:28.138Z,11.30
2023-02-09T09:39:56.277Z,14.37
2023-02-09T09:42:35.636Z,15.43
2023-02-09T09:45:08.286Z,14.83
2023-02-09T09:47:40.639Z,15.33
2023-02-09T09:50:17.219Z,15.30
2023-02-09T09:52:48.719Z,11.83
2023-02-09T09:55:23.560Z,11.83
2023-02-09T09:57:53.749Z,14.30
2023-02-09T10:00:26.298Z,11.40
2023-02-09T10:02:54.767Z,13.27
2023-02-09T10:05:26.052Z,11.27
2023-02-09T10:08:01.165Z,12.23
2023-02-09T10:10:39.009Z,12.47
2023-02-09T10:13:14.422Z,14.40
2023-02-09T10:15:48.414Z,14.60
2023-02-09T10:18:25.076Z,11.73
2023-02-09T10:20:56.501Z,11.27
2023-02-09T10:23:26.493Z,14.10
2023-02-09T10:26:00.729Z,12.80
2023-02-09T10:28:32.194Z,12.60
2023-02-09T10:31:04.889Z,11.30
2023-02-09T10:33:43.199Z,11.00
2023-02-09T10:36:25.542Z,9.43
2023-02-09T10:38:54.884Z,9.67
2023-02-09T10:41:23.548Z,9.53
2023-02-09T10:43:53.455Z,10.07
2023-02-09T10:46:23.721Z,9.00
2023-02-09T10:48:51.955Z,15.77
2023-02-09T10:51:29.070Z,14.33
2023-02-09T10:54:01.739Z,12.13
2023-02-09T10:56:43.168Z,18.27
2023-02-09T10:59:18.137Z,12.20
2023-02-09T11:01:56.548Z,22.93
2023-02-09T11:04:27.173Z,23.37
2023-02-09T11:06:58.619Z,16.40
2023-02-09T11:09:30.792Z,13.93
2023-02-09T11:11:59.020Z,11.87
2023-02-09T11:14:28.058Z,10.53
2023-02-09T11:17:17.253Z,10.80
2023-02-09T11:20:09.204Z,10.90
2023-02-09T11:22:52.502Z,9.70
2023-02-09T11:25:24.877Z,8.30
2023-02-09T11:28:04.117Z,10.20
2023-02-09T11:30:48.710Z,9.90
2023-02-09T11:33:25.898Z,11.50
2023-02-09T11:36:06.206Z,12.97
2023-02-09T11:38:39.175Z,9.60
2023-02-09T11:41:28.294Z,11.43
2023-02-09T11:44:01.016Z,10.77
2023-02-09T11:46:34.495Z,10.67
2023-02-09T11:49:12.998Z,9.93
2023-02-09T11:51:43.406Z,8.27
2023-02-09T11:54:17.080Z,8.23
2023-02-09T11:56:50.034Z,8.03
2023-02-09T11:59:25.019Z,10.03
2023-02-09T12:01:58.001Z,11.47
2023-02-09T12:04:33.355Z,8.13
2023-02-09T12:07:06.039Z,8.77
2023-02-09T12:09:48.305Z,8.80
2023-02-09T12:12:26.534Z,13.13
2023-02-09T12:15:04.500Z,8.20
2023-02-09T12:17:42.402Z,9.73
2023-02-09T12:20:26.298Z,7.20
2023-02-09T12:23:07.939Z,8.83
2023-02-09T12:25:53.084Z,9.37
2023-02-09T12:28:44.806Z,10.03
2023-02-09T12:31:20.081Z,10.30
2023-02-09T12:34:12.324Z,10.00
2023-02-09T12:37:03.150Z,8.50
2023-02-09T12:39:31.974Z,9.03
2023-02-09T12:42:28.202Z,9.10
2023-02-09T12:44:59.737Z,8.03
2023-02-09T12:47:42.666Z,11.40
2023-02-09T12:50:23.732Z,9.97
2023-02-09T12:53:29.780Z,8.10
2023-02-09T12:56:00.963Z,9.03
2023-02-09T12:58:38.770Z,8.47
2023-02-09T13:01:09.327Z,11.77
2023-02-09T13:03:45.077Z,9.47
2023-02-09T13:06:29.323Z,15.93
2023-02-09T13:09:00.932Z,22.20
2023-02-09T13:11:35.570Z,9.70
2023-02-09T13:14:07.653Z,10.07
2023-02-09T13:16:48.722Z,8.97
2023-02-09T13:19:36.437Z,12.03
2023-02-09T13:22:28.524Z,7.73
2023-02-09T13:25:00.520Z,6.67
2023-02-09T13:27:31.265Z,9.73
2023-02-09T13:30:00.452Z,12.00
2023-02-09T13:32:39.235Z,9.07
2023-02-09T13:35:17.674Z,11.50
2023-02-09T13:37:48.728Z,9.87
2023-02-09T13:40:22.206Z,11.17
2023-02-09T13:42:58.780Z,7.07
2023-02-09T13:45:28.267Z,14.30
2023-02-09T13:47:59.096Z,7.40
2023-02-09T13:50:29.289Z,8.37
2023-02-09T13:53:09.343Z,8.30
2023-02-09T13:55:48.281Z,8.00
2023-02-09T13:58:22.283Z,6.30
2023-02-09T14:01:15.063Z,8.17
2023-02-09T14:03:57.939Z,7.70
2023-02-09T14:06:35.121Z,8.10
2023-02-09T14:09:04.880Z,8.23
2023-02-09T14:11:42.685Z,8.17
2023-02-09T14:14:15.844Z,7.93
2023-02-09T14:16:52.973Z,8.80
2023-02-09T14:19:28.670Z,12.83
2023-02-09T14:21:56.950Z,8.40
2023-02-09T14:24:26.834Z,8.00
2023-02-09T14:27:04.721Z,9.70
2023-02-09T14:29:35.718Z,10.00
2023-02-09T14:32:32.413Z,11.00
2023-02-09T14:35:16.344Z,8.77
2023-02-09T14:37:45.764Z,8.10
2023-02-09T14:40:22.754Z,10.03
2023-02-09T14:42:59.842Z,9.27
2023-02-09T14:45:31.705Z,8.50
2023-02-09T14:47:59.844Z,9.20
2023-02-09T14:50:29.747Z,8.93
2023-02-09T14:53:06.366Z,7.47
2023-02-09T14:55:40.177Z,19.20
2023-02-09T14:58:13.940Z,8.07
2023-02-09T15:00:42.171Z,8.60
2023-02-09T15:03:10.353Z,9.03
2023-02-09T15:05:40.383Z,8.90
2023-02-09T15:08:12.913Z,8.50
2023-02-09T15:10:45.526Z,7.90
2023-02-09T15:13:15.455Z,9.67
2023-02-09T15:15:45.204Z,7.97
2023-02-09T15:18:19.760Z,8.27
2023-02-09T15:20:49.356Z,8.00
2023-02-09T15:23:17.965Z,8.33
2023-02-09T15:25:46.863Z,8.70
2023-02-09T15:28:19.559Z,24.10
2023-02-09T15:30:48.157Z,9.90
2023-02-09T15:33:16.651Z,11.20
2023-02-09T15:35:45.243Z,11.40
2023-02-09T15:38:18.349Z,16.57
2023-02-09T15:41:06.216Z,10.90
2023-02-09T15:43:52.006Z,14.90
2023-02-09T15:46:38.705Z,17.67
2023-02-09T15:49:08.276Z,10.93
2023-02-09T15:51:39.158Z,12.53
2023-02-09T15:54:13.816Z,9.40
2023-02-09T15:56:42.083Z,17.53
2023-02-09T15:59:17.165Z,8.83
2023-02-09T16:01:45.626Z,9.63
2023-02-09T16:04:14.913Z,10.93
2023-02-09T16:06:46.570Z,9.87
2023-02-09T16:09:19.964Z,7.00
2023-02-09T16:11:48.899Z,8.13
2023-02-09T16:14:20.779Z,8.20
2023-02-09T16:16:49.912Z,13.57
2023-02-09T16:19:18.442Z,18.93
2023-02-09T16:21:50.202Z,13.37
2023-02-09T16:24:27.312Z,9.63
2023-02-09T16:26:56.153Z,10.97
2023-02-09T16:29:25.878Z,10.93
2023-02-09T16:31:54.459Z,10.00
2023-02-09T16:34:22.767Z,9.23
2023-02-09T16:36:51.077Z,12.00
2023-02-09T16:39:22.909Z,9.17
2023-02-09T16:41:51.531Z,9.70
2023-02-09T16:44:23.010Z,11.87
2023-02-09T16:46:53.782Z,7.90
2023-02-09T16:49:32.381Z,9.57
2023-02-09T16:52:05.026Z,7.47
2023-02-09T16:54:40.749Z,10.77
2023-02-09T16:57:12.772Z,40.37
2023-02-09T16:59:42.157Z,17.60
2023-02-09T17:02:30.596Z,12.57
2023-02-09T17:04:59.789Z,7.47
2023-02-09T17:07:35.646Z,21.23
2023-02-09T17:10:17.554Z,11.07
2023-02-09T17:12:46.416Z,11.80
2023-02-09T17:15:28.803Z,9.70
2023-02-09T17:18:02.479Z,13.30
2023-02-09T17:20:37.393Z,10.17
2023-02-09T17:23:40.153Z,13.43
2023-02-09T17:26:11.021Z,13.30
2023-02-09T17:28:40.875Z,13.90
2023-02-09T17:31:18.668Z,10.53
2023-02-09T17:33:48.496Z,13.00
2023-02-09T17:36:27.662Z,11.77
2023-02-09T17:38:59.349Z,9.57
2023-02-09T17:41:33.410Z,13.23
2023-02-09T17:44:23.837Z,12.20
2023-02-09T17:46:57.227Z,9.23
2023-02-09T17:49:25.487Z,11.30
2023-02-09T17:51:54.116Z,15.40
2023-02-09T17:54:22.587Z,10.00
2023-02-09T17:56:52.118Z,13.37
2023-02-09T17:59:21.301Z,16.67
2023-02-09T18:01:50.613Z,12.90
2023-02-09T18:04:21.805Z,39.90
2023-02-09T18:06:50.160Z,32.53
2023-02-09T18:09:18.343Z,50.70
2023-02-09T18:11:59.851Z,21.87
2023-02-09T18:14:28.972Z,15.20
2023-02-09T18:16:57.456Z,11.23
2023-02-09T18:19:26.632Z,15.03
2023-02-09T18:21:56.430Z,11.90
2023-02-09T18:24:27.868Z,14.07
2023-02-09T18:26:57.889Z,15.20
2023-02-09T18:29:29.301Z,11.93
2023-02-09T18:31:58.117Z,15.20
2023-02-09T18:34:27.032Z,12.30
2023-02-09T18:36:55.608Z,16.83
2023-02-09T18:39:24.026Z,20.93
2023-02-09T18:41:54.535Z,12.80
2023-02-09T18:44:29.206Z,13.40
2023-02-09T18:47:00.423Z,14.40
2023-02-09T18:49:28.923Z,15.30
2023-02-09T18:51:58.914Z,17.03
2023-02-09T18:54:28.957Z,15.13
2023-02-09T18:56:57.432Z,13.40
2023-02-09T18:59:30.326Z,15.23
2023-02-09T19:01:58.865Z,13.67
2023-02-09T19:04:27.332Z,11.40
2023-02-09T19:06:55.911Z,13.70
2023-02-09T19:09:24.167Z,14.03
2023-02-09T19:11:52.388Z,14.07
2023-02-09T19:14:38.738Z,12.80
2023-02-09T19:17:10.205Z,13.07
2023-02-09T19:19:38.871Z,14.60
2023-02-09T19:22:07.271Z,15.33
2023-02-09T19:24:35.646Z,13.20
2023-02-09T19:27:06.689Z,17.63
2023-02-09T19:29:35.174Z,11.93
2023-02-09T19:32:05.238Z,13.27
2023-02-09T19:34:37.040Z,13.30
2023-02-09T19:37:06.420Z,10.93
2023-02-09T19:39:38.207Z,16.90
2023-02-09T19:42:07.133Z,17.70
2023-02-09T19:44:36.379Z,15.27
2023-02-09T19:47:04.542Z,15.10
2023-02-09T19:49:34.443Z,17.03
2023-02-09T19:52:02.694Z,16.70
2023-02-09T19:54:30.822Z,12.27
2023-02-09T19:56:59.771Z,14.90
2023-02-09T19:59:27.911Z,15.93
2023-02-09T20:01:56.436Z,14.60
2023-02-09T20:04:24.785Z,12.60
2023-02-09T20:06:54.438Z,16.20
2023-02-09T20:09:22.627Z,15.07
2023-02-09T20:11:50.813Z,13.07
2023-02-09T20:14:18.951Z,16.00
2023-02-09T20:16:47.116Z,12.93
2023-02-09T20:19:15.299Z,15.53
2023-02-09T20:21:43.777Z,23.60
2023-02-09T20:24:14.513Z,15.30
2023-02-09T20:26:44.389Z,15.63
2023-02-09T20:29:13.107Z,13.50
2023-02-09T20:31:43.007Z,20.03
2023-02-09T20:34:14.320Z,14.23
2023-02-09T20:36:45.567Z,13.93
2023-02-09T20:39:16.788Z,17.00
2023-02-09T20:42:06.450Z,16.50
2023-02-09T20:44:53.159Z,14.40
2023-02-09T20:47:21.325Z,13.33
2023-02-09T20:49:49.731Z,15.47
2023-02-09T20:52:18.196Z,14.10
2023-02-09T20:54:47.742Z,18.90
2023-02-09T20:57:15.964Z,14.00
2023-02-09T20:59:44.162Z,15.40
2023-02-09T21:02:12.902Z,17.70
2023-02-09T21:04:41.143Z,15.27
2023-02-09T21:07:09.331Z,13.67
2023-02-09T21:09:39.292Z,15.50
2023-02-09T21:12:09.207Z,16.27
2023-02-09T21:14:42.139Z,12.73
2023-02-09T21:17:11.051Z,14.30
2023-02-09T21:19:40.053Z,11.30
2023-02-09T21:22:08.494Z,14.00
2023-02-09T21:24:37.763Z,14.70
2023-02-09T21:27:06.602Z,10.13
2023-02-09T21:29:36.607Z,15.90
2023-02-09T21:32:07.219Z,11.80
2023-02-09T21:34:35.860Z,15.90
2023-02-09T21:37:07.809Z,12.30
2023-02-09T21:39:36.024Z,13.40
2023-02-09T21:42:21.965Z,17.20
2023-02-09T21:44:51.572Z,10.30
2023-02-09T21:47:19.725Z,17.30
2023-02-09T21:49:47.908Z,15.83
2023-02-09T21:52:16.185Z,13.63
2023-02-09T21:54:44.329Z,13.30
2023-02-09T21:57:12.501Z,15.43
2023-02-09T21:59:40.788Z,16.90
2023-02-09T22:02:13.889Z,17.10
2023-02-09T22:04:42.665Z,15.00
2023-02-09T22:07:11.657Z,15.23
2023-02-09T22:09:40.231Z,14.90
2023-02-09T22:12:08.839Z,17.43
2023-02-09T22:14:37.151Z,14.10
2023-02-09T22:17:05.653Z,15.03
2023-02-09T22:19:35.354Z,15.40
2023-02-09T22:22:03.696Z,14.50
2023-02-09T22:24:34.711Z,14.13
2023-02-09T22:27:03.414Z,16.27
2023-02-09T22:29:33.226Z,11.07
2023-02-09T22:32:01.907Z,16.20
2023-02-09T22:34:30.177Z,15.70
2023-02-09T22:36:59.654Z,13.67
2023-02-09T22:39:27.953Z,11.93
2023-02-09T22:41:58.019Z,14.80
2023-02-09T22:44:27.817Z,18.50
2023-02-09T22:46:55.952Z,18.00
2023-02-09T22:49:24.196Z,13.67
2023-02-09T22:51:52.364Z,16.23
2023-02-09T22:54:22.209Z,14.30
2023-02-09T22:56:50.463Z,14.60
2023-02-09T22:59:18.664Z,16.03
2023-02-09T23:01:46.900Z,12.60
2023-02-09T23:04:15.097Z,15.40
2023-02-09T23:06:43.338Z,14.30
2023-02-09T23:09:13.092Z,11.47
2023-02-09T23:11:44.159Z,14.10
2023-02-09T23:14:12.627Z,16.47
2023-02-09T23:16:42.295Z,16.37
2023-02-09T23:19:13.530Z,15.13
2023-02-09T23:21:43.827Z,13.30
2023-02-09T23:24:13.721Z,13.57
2023-02-09T23:26:43.434Z,12.37
2023-02-09T23:29:15.058Z,16.10
2023-02-09T23:31:44.800Z,14.20
2023-02-09T23:34:15.229Z,14.80
2023-02-09T23:36:43.413Z,13.63
2023-02-09T23:39:16.965Z,15.87
2023-02-09T23:41:46.809Z,19.80
2023-02-09T23:44:15.084Z,16.00
2023-02-09T23:46:43.411Z,10.87
2023-02-09T23:49:12.028Z,17.10
2023-02-09T23:51:40.298Z,15.60
2023-02-09T23:54:08.954Z,13.83
2023-02-09T23:56:40.498Z,13.93
2023-02-09T23:59:14.353Z,15.30
